createdAt,value
2017-11-06T00:00:11.080Z,21.10
2017-11-06T00:01:15.943Z,21.10
2017-11-06T00:02:20.923Z,21.10
2017-11-06T00:03:26.010Z,21.20
2017-11-06T00:04:31.019Z,21.10
2017-11-06T00:05:35.897Z,21.10
2017-11-06T00:06:40.862Z,21.10
2017-11-06T00:07:46.019Z,21.10
2017-11-06T00:08:50.994Z,21.10
2017-11-06T00:09:56.118Z,21.10
2017-11-06T00:11:01.340Z,21.10
2017-11-06T00:12:06.477Z,21.20
2017-11-06T00:13:11.559Z,21.10
2017-11-06T00:14:18.104Z,21.10
2017-11-06T00:15:23.394Z,21.10
2017-11-06T00:16:28.352Z,21.10
2017-11-06T00:17:33.470Z,21.10
2017-11-06T00:18:38.437Z,21.10
2017-11-06T00:19:43.406Z,21.20
2017-11-06T00:20:48.455Z,21.20
2017-11-06T00:21:53.469Z,21.10
2017-11-06T00:22:58.317Z,21.10
2017-11-06T00:24:03.245Z,21.10
2017-11-06T00:25:08.991Z,21.10
2017-11-06T00:26:14.019Z,21.10
2017-11-06T00:27:19.145Z,21.10
2017-11-06T00:28:23.980Z,21.10
2017-11-06T00:29:28.834Z,21.10
2017-11-06T00:30:33.419Z,21.10
2017-11-06T00:31:52.539Z,21.10
2017-11-06T00:32:57.584Z,21.10
2017-11-06T00:34:02.377Z,21.10
2017-11-06T00:35:07.143Z,21.10
2017-11-06T00:36:11.902Z,21.10
2017-11-06T00:37:16.686Z,21.10
2017-11-06T00:38:21.411Z,21.10
2017-11-06T00:39:26.195Z,21.10
2017-11-06T00:40:30.945Z,21.00
2017-11-06T00:41:35.674Z,21.10
2017-11-06T00:42:40.591Z,21.10
2017-11-06T00:43:45.272Z,21.10
2017-11-06T00:44:49.990Z,21.00
2017-11-06T00:45:54.619Z,21.10
2017-11-06T00:46:59.527Z,21.00
2017-11-06T00:48:04.275Z,21.10
2017-11-06T00:49:09.050Z,21.00
2017-11-06T00:50:14.068Z,21.00
2017-11-06T00:51:18.691Z,21.10
2017-11-06T00:52:23.443Z,21.00
2017-11-06T00:53:28.156Z,21.00
2017-11-06T00:54:33.087Z,21.00
2017-11-06T00:55:37.859Z,21.10
2017-11-06T00:56:42.635Z,21.10
2017-11-06T00:57:47.227Z,21.00
2017-11-06T00:58:52.113Z,21.00
2017-11-06T00:59:56.964Z,21.00
2017-11-06T01:01:01.703Z,21.00
2017-11-06T01:02:06.300Z,21.00
2017-11-06T01:03:11.020Z,21.10
2017-11-06T01:04:15.759Z,21.10
2017-11-06T01:05:20.370Z,21.00
2017-11-06T01:06:25.004Z,21.00
2017-11-06T01:07:29.884Z,21.00
2017-11-06T01:08:34.470Z,21.10
2017-11-06T01:09:39.186Z,21.00
2017-11-06T01:10:43.949Z,21.00
2017-11-06T01:11:48.693Z,21.00
2017-11-06T01:12:53.444Z,21.00
2017-11-06T01:13:58.306Z,21.00
2017-11-06T01:15:03.025Z,21.10
2017-11-06T01:16:07.578Z,21.00
2017-11-06T01:17:12.330Z,21.10
2017-11-06T01:18:17.228Z,21.00
2017-11-06T01:19:21.840Z,21.00
2017-11-06T01:20:26.588Z,21.00
2017-11-06T01:21:31.298Z,21.00
2017-11-06T01:22:35.995Z,21.10
2017-11-06T01:23:40.699Z,21.00
2017-11-06T01:24:45.622Z,21.00
2017-11-06T01:25:50.636Z,21.00
2017-11-06T01:26:55.376Z,21.00
2017-11-06T01:28:00.116Z,21.00
2017-11-06T01:29:04.832Z,21.00
2017-11-06T01:30:09.441Z,21.00
2017-11-06T01:31:14.182Z,21.10
2017-11-06T01:32:19.099Z,21.00
2017-11-06T01:33:23.988Z,21.00
2017-11-06T01:34:28.634Z,21.10
2017-11-06T01:35:33.416Z,21.00
2017-11-06T01:36:37.989Z,21.10
2017-11-06T01:37:42.750Z,21.10
2017-11-06T01:38:47.494Z,21.00
2017-11-06T01:39:52.114Z,21.10
2017-11-06T01:40:56.833Z,21.00
2017-11-06T01:42:01.482Z,21.00
2017-11-06T01:43:06.216Z,21.00
2017-11-06T01:44:10.939Z,21.00
2017-11-06T01:45:15.909Z,21.10
2017-11-06T01:46:20.625Z,21.00
2017-11-06T01:47:25.395Z,21.10
2017-11-06T01:48:30.099Z,21.00
2017-11-06T01:49:34.890Z,21.00
2017-11-06T01:50:39.658Z,21.00
2017-11-06T01:51:44.499Z,21.00
2017-11-06T01:52:49.426Z,21.10
2017-11-06T01:53:54.053Z,21.00
2017-11-06T01:54:58.804Z,21.00
2017-11-06T01:56:03.474Z,21.10
2017-11-06T01:57:08.067Z,21.00
2017-11-06T01:58:12.731Z,21.00
2017-11-06T01:59:17.434Z,21.00
2017-11-06T02:00:22.182Z,21.00
2017-11-06T02:01:26.889Z,21.00
2017-11-06T02:02:31.738Z,21.00
2017-11-06T02:03:36.483Z,21.00
2017-11-06T02:04:41.154Z,21.00
2017-11-06T02:05:46.026Z,21.00
2017-11-06T02:06:50.628Z,21.00
2017-11-06T02:07:55.327Z,21.10
2017-11-06T02:09:00.267Z,21.00
2017-11-06T02:10:05.133Z,21.00
2017-11-06T02:11:09.689Z,21.00
2017-11-06T02:12:14.485Z,21.00
2017-11-06T02:13:19.184Z,21.00
2017-11-06T02:14:23.832Z,21.00
2017-11-06T02:15:28.600Z,21.00
2017-11-06T02:16:33.391Z,21.00
2017-11-06T02:17:38.205Z,21.00
2017-11-06T02:18:43.000Z,21.00
2017-11-06T02:19:47.711Z,21.00
2017-11-06T02:20:52.582Z,21.00
2017-11-06T02:21:57.161Z,21.00
2017-11-06T02:23:01.773Z,21.00
2017-11-06T02:24:06.670Z,21.00
2017-11-06T02:25:11.544Z,21.00
2017-11-06T02:26:16.312Z,21.00
2017-11-06T02:27:21.033Z,21.00
2017-11-06T02:28:25.801Z,21.00
2017-11-06T02:29:30.749Z,21.00
2017-11-06T02:30:35.682Z,21.00
2017-11-06T02:31:40.441Z,21.00
2017-11-06T02:32:45.244Z,21.00
2017-11-06T02:33:50.030Z,21.00
2017-11-06T02:34:54.796Z,21.00
2017-11-06T02:35:59.677Z,21.00
2017-11-06T02:37:04.423Z,21.00
2017-11-06T02:38:09.140Z,21.00
2017-11-06T02:39:13.918Z,21.00
2017-11-06T02:40:18.707Z,21.00
2017-11-06T02:41:23.453Z,21.00
2017-11-06T02:42:28.188Z,21.00
2017-11-06T02:43:33.069Z,21.00
2017-11-06T02:44:37.827Z,21.00
2017-11-06T02:45:42.754Z,21.00
2017-11-06T02:46:47.519Z,21.00
2017-11-06T02:47:52.112Z,21.00
2017-11-06T02:48:56.712Z,21.00
2017-11-06T02:50:01.593Z,21.00
2017-11-06T02:51:06.313Z,21.00
2017-11-06T02:52:11.110Z,21.00
2017-11-06T02:53:16.124Z,21.00
2017-11-06T02:54:21.029Z,21.00
2017-11-06T02:55:25.848Z,21.00
2017-11-06T02:56:30.478Z,21.00
2017-11-06T02:57:35.270Z,21.00
2017-11-06T02:58:40.103Z,21.00
2017-11-06T02:59:44.820Z,21.00
2017-11-06T03:00:49.540Z,21.00
2017-11-06T03:01:54.108Z,21.00
2017-11-06T03:02:58.711Z,21.00
2017-11-06T03:04:03.526Z,21.00
2017-11-06T03:05:08.122Z,21.00
2017-11-06T03:06:12.861Z,21.00
2017-11-06T03:07:17.593Z,21.00
2017-11-06T03:08:22.224Z,21.00
2017-11-06T03:09:26.881Z,21.00
2017-11-06T03:10:31.916Z,21.00
2017-11-06T03:11:36.635Z,21.00
2017-11-06T03:12:41.375Z,21.00
2017-11-06T03:13:46.317Z,21.00
2017-11-06T03:14:51.040Z,21.00
2017-11-06T03:15:55.836Z,21.00
2017-11-06T03:17:00.593Z,21.00
2017-11-06T03:18:05.321Z,21.00
2017-11-06T03:19:10.194Z,21.00
2017-11-06T03:20:14.946Z,21.00
2017-11-06T03:21:19.653Z,21.00
2017-11-06T03:22:24.448Z,21.00
2017-11-06T03:23:29.186Z,21.00
2017-11-06T03:24:33.967Z,21.00
2017-11-06T03:25:38.731Z,21.00
2017-11-06T03:26:43.630Z,21.00
2017-11-06T03:27:48.412Z,21.00
2017-11-06T03:28:53.033Z,21.00
2017-11-06T03:29:57.672Z,21.00
2017-11-06T03:31:02.305Z,21.00
2017-11-06T03:32:07.050Z,21.00
2017-11-06T03:33:11.688Z,21.00
2017-11-06T03:34:16.426Z,21.00
2017-11-06T03:35:21.319Z,21.00
2017-11-06T03:36:26.039Z,21.00
2017-11-06T03:37:31.166Z,21.00
2017-11-06T03:38:36.054Z,21.00
2017-11-06T03:39:40.770Z,21.00
2017-11-06T03:40:45.473Z,21.00
2017-11-06T03:41:50.175Z,21.00
2017-11-06T03:42:54.796Z,21.00
2017-11-06T03:43:59.442Z,21.00
2017-11-06T03:45:04.217Z,21.00
2017-11-06T03:46:08.919Z,21.00
2017-11-06T03:47:13.805Z,21.00
2017-11-06T03:48:18.507Z,21.00
2017-11-06T03:49:23.415Z,21.00
2017-11-06T03:50:28.193Z,21.00
2017-11-06T03:51:32.740Z,21.00
2017-11-06T03:52:37.483Z,21.00
2017-11-06T03:53:42.402Z,21.00
2017-11-06T03:54:47.136Z,21.00
2017-11-06T03:55:51.913Z,21.00
2017-11-06T03:56:56.745Z,21.00
2017-11-06T03:58:01.443Z,21.00
2017-11-06T03:59:06.328Z,21.00
2017-11-06T04:00:11.072Z,21.00
2017-11-06T04:01:15.998Z,21.00
2017-11-06T04:02:20.772Z,21.00
2017-11-06T04:03:25.616Z,21.00
2017-11-06T04:04:30.404Z,21.00
2017-11-06T04:05:35.020Z,21.00
2017-11-06T04:06:39.684Z,21.00
2017-11-06T04:08:46.621Z,21.00
2017-11-06T04:09:51.505Z,21.00
2017-11-06T04:10:56.480Z,21.00
2017-11-06T04:12:01.330Z,21.00
2017-11-06T04:13:06.195Z,21.00
2017-11-06T04:14:11.092Z,21.00
2017-11-06T04:15:15.681Z,21.00
2017-11-06T04:16:20.255Z,21.00
2017-11-06T04:17:24.963Z,21.00
2017-11-06T04:18:29.831Z,21.00
2017-11-06T04:19:34.598Z,21.00
2017-11-06T04:20:39.169Z,21.00
2017-11-06T04:21:43.764Z,21.00
2017-11-06T04:22:48.312Z,21.00
2017-11-06T04:23:53.152Z,21.00
2017-11-06T04:24:58.049Z,21.00
2017-11-06T04:26:02.664Z,21.00
2017-11-06T04:27:07.708Z,21.00
2017-11-06T04:28:12.824Z,21.00
2017-11-06T04:29:17.794Z,21.00
2017-11-06T04:30:22.794Z,21.00
2017-11-06T04:31:27.916Z,21.00
2017-11-06T04:32:33.173Z,21.00
2017-11-06T04:33:38.198Z,21.00
2017-11-06T04:34:43.703Z,21.10
2017-11-06T04:35:48.908Z,21.00
2017-11-06T04:36:53.989Z,21.10
2017-11-06T04:38:00.133Z,21.00
2017-11-06T04:39:05.607Z,21.10
2017-11-06T04:40:10.551Z,21.10
2017-11-06T04:41:15.743Z,21.10
2017-11-06T04:42:21.467Z,21.10
2017-11-06T04:43:27.227Z,21.10
2017-11-06T04:44:32.670Z,21.10
2017-11-06T04:45:38.123Z,21.10
2017-11-06T04:46:43.514Z,21.10
2017-11-06T04:47:48.826Z,21.10
2017-11-06T04:48:53.869Z,21.10
2017-11-06T04:49:58.876Z,21.10
2017-11-06T04:51:04.012Z,21.10
2017-11-06T04:52:09.115Z,21.10
2017-11-06T04:53:14.217Z,21.10
2017-11-06T04:54:19.886Z,21.10
2017-11-06T04:55:25.025Z,21.10
2017-11-06T04:56:30.140Z,21.10
2017-11-06T04:57:35.366Z,21.10
2017-11-06T04:58:40.721Z,21.10
2017-11-06T04:59:46.132Z,21.10
2017-11-06T05:00:51.259Z,21.10
2017-11-06T05:01:56.555Z,21.20
2017-11-06T05:03:01.871Z,21.20
2017-11-06T05:04:06.956Z,21.20
2017-11-06T05:05:12.185Z,21.20
2017-11-06T05:06:17.063Z,21.20
2017-11-06T05:07:22.092Z,21.20
2017-11-06T05:08:27.303Z,21.10
2017-11-06T05:09:32.196Z,21.10
2017-11-06T05:10:37.407Z,21.10
2017-11-06T05:11:43.691Z,21.20
2017-11-06T05:12:49.028Z,21.10
2017-11-06T05:13:54.347Z,21.20
2017-11-06T05:14:59.531Z,21.10
2017-11-06T05:16:04.915Z,21.10
2017-11-06T05:17:10.912Z,21.20
2017-11-06T05:18:16.191Z,21.10
2017-11-06T05:19:21.464Z,21.20
2017-11-06T05:20:26.758Z,21.20
2017-11-06T05:21:31.968Z,21.10
2017-11-06T05:22:37.179Z,21.20
2017-11-06T05:23:45.504Z,21.10
2017-11-06T05:24:50.536Z,21.10
2017-11-06T05:25:56.133Z,21.10
2017-11-06T05:27:02.574Z,21.10
2017-11-06T05:28:08.449Z,21.10
2017-11-06T05:29:14.067Z,21.10
2017-11-06T05:30:19.173Z,21.10
2017-11-06T05:31:24.358Z,21.10
2017-11-06T05:32:30.057Z,21.10
2017-11-06T05:33:35.216Z,21.10
2017-11-06T05:34:40.200Z,21.10
2017-11-06T05:35:45.318Z,21.10
2017-11-06T05:36:50.832Z,21.10
2017-11-06T05:37:56.027Z,21.10
2017-11-06T05:39:01.037Z,21.10
2017-11-06T05:40:06.404Z,21.10
2017-11-06T05:41:11.815Z,21.10
2017-11-06T05:42:17.074Z,21.10
2017-11-06T05:43:22.160Z,21.10
2017-11-06T05:44:27.390Z,21.10
2017-11-06T05:45:32.704Z,21.10
2017-11-06T05:46:37.780Z,21.10
2017-11-06T05:47:42.996Z,21.10
2017-11-06T05:48:48.246Z,21.10
2017-11-06T05:49:54.673Z,21.10
2017-11-06T05:50:59.866Z,21.10
2017-11-06T05:52:05.251Z,21.20
2017-11-06T05:53:10.593Z,21.20
2017-11-06T05:54:15.864Z,21.10
2017-11-06T05:55:21.828Z,21.20
2017-11-06T05:56:26.751Z,21.20
2017-11-06T05:57:32.101Z,21.10
2017-11-06T05:58:37.159Z,21.20
2017-11-06T05:59:42.282Z,21.20
2017-11-06T06:00:48.600Z,21.20
2017-11-06T06:01:53.743Z,21.20
2017-11-06T06:03:00.157Z,21.20
2017-11-06T06:04:05.334Z,21.20
2017-11-06T06:05:11.978Z,21.20
2017-11-06T06:06:17.663Z,21.20
2017-11-06T06:07:22.912Z,21.20
2017-11-06T06:08:28.104Z,21.20
2017-11-06T06:09:33.380Z,21.20
2017-11-06T06:10:38.815Z,21.20
2017-11-06T06:11:44.125Z,21.20
2017-11-06T06:12:49.372Z,21.20
2017-11-06T06:13:54.821Z,21.20
2017-11-06T06:15:00.353Z,21.20
2017-11-06T06:16:09.293Z,21.20
2017-11-06T06:17:14.807Z,21.10
2017-11-06T06:18:20.250Z,21.10
2017-11-06T06:19:25.296Z,21.20
2017-11-06T06:20:31.432Z,21.20
2017-11-06T06:21:36.543Z,21.10
2017-11-06T06:22:42.924Z,21.10
2017-11-06T06:23:49.083Z,21.10
2017-11-06T06:24:54.734Z,21.10
2017-11-06T06:26:00.046Z,21.10
2017-11-06T06:27:05.133Z,21.20
2017-11-06T06:28:10.568Z,21.20
2017-11-06T06:29:15.563Z,21.20
2017-11-06T06:30:21.232Z,21.20
2017-11-06T06:31:28.149Z,21.20
2017-11-06T06:32:33.542Z,21.20
2017-11-06T06:33:38.833Z,21.20
2017-11-06T06:34:44.282Z,21.20
2017-11-06T06:35:49.344Z,21.20
2017-11-06T06:36:54.477Z,21.20
2017-11-06T06:37:59.595Z,21.20
2017-11-06T06:39:04.956Z,21.10
2017-11-06T06:40:11.376Z,21.20
2017-11-06T06:41:17.428Z,21.20
2017-11-06T06:42:22.699Z,21.20
2017-11-06T06:43:27.695Z,21.20
2017-11-06T06:44:32.938Z,21.20
2017-11-06T06:45:38.409Z,21.20
2017-11-06T06:46:43.705Z,21.20
2017-11-06T06:47:49.065Z,21.20
2017-11-06T06:48:54.106Z,21.20
2017-11-06T06:49:59.464Z,21.20
2017-11-06T06:51:04.878Z,21.20
2017-11-06T06:52:10.176Z,21.10
2017-11-06T06:53:15.417Z,21.10
2017-11-06T06:54:20.532Z,21.10
2017-11-06T06:55:25.747Z,21.10
2017-11-06T06:56:30.838Z,21.10
2017-11-06T06:57:35.950Z,21.10
2017-11-06T06:58:40.988Z,21.00
2017-11-06T06:59:46.312Z,21.00
2017-11-06T07:00:51.564Z,21.00
2017-11-06T07:01:56.912Z,21.00
2017-11-06T07:03:02.364Z,21.00
2017-11-06T07:04:07.900Z,21.00
2017-11-06T07:05:14.549Z,21.00
2017-11-06T07:06:20.404Z,20.90
2017-11-06T07:07:25.662Z,20.90
2017-11-06T07:08:30.919Z,20.90
2017-11-06T07:09:36.509Z,20.60
2017-11-06T07:10:41.767Z,20.40
2017-11-06T07:11:46.890Z,20.00
2017-11-06T07:12:52.250Z,19.70
2017-11-06T07:13:57.324Z,19.50
2017-11-06T07:15:02.705Z,19.30
2017-11-06T07:16:08.236Z,19.10
2017-11-06T07:17:13.620Z,19.00
2017-11-06T07:18:18.679Z,18.90
2017-11-06T07:19:23.971Z,18.90
2017-11-06T07:20:29.564Z,18.90
2017-11-06T07:21:35.050Z,18.80
2017-11-06T07:22:40.336Z,18.80
2017-11-06T07:23:45.371Z,18.80
2017-11-06T07:24:50.704Z,18.80
2017-11-06T07:25:56.011Z,18.80
2017-11-06T07:27:01.373Z,18.80
2017-11-06T07:28:07.008Z,18.80
2017-11-06T07:29:12.302Z,18.90
2017-11-06T07:30:17.957Z,19.00
2017-11-06T07:31:23.176Z,19.10
2017-11-06T07:32:28.164Z,19.30
2017-11-06T07:33:33.359Z,19.40
2017-11-06T07:34:38.840Z,19.40
2017-11-06T07:35:44.094Z,19.50
2017-11-06T07:36:49.350Z,19.60
2017-11-06T07:37:54.473Z,19.70
2017-11-06T07:39:00.042Z,19.80
2017-11-06T07:40:05.923Z,19.90
2017-11-06T07:41:11.506Z,20.00
2017-11-06T07:42:16.928Z,20.10
2017-11-06T07:43:22.631Z,20.20
2017-11-06T07:44:27.827Z,20.30
2017-11-06T07:45:33.209Z,20.40
2017-11-06T07:46:38.387Z,20.40
2017-11-06T07:47:43.720Z,20.50
2017-11-06T07:48:49.100Z,20.60
2017-11-06T07:49:54.263Z,20.60
2017-11-06T07:50:59.535Z,20.60
2017-11-06T07:52:04.977Z,20.60
2017-11-06T07:53:10.366Z,20.70
2017-11-06T07:54:15.987Z,20.70
2017-11-06T07:55:21.188Z,20.80
2017-11-06T07:56:26.464Z,20.90
2017-11-06T07:57:31.599Z,20.90
2017-11-06T07:58:36.720Z,21.00
2017-11-06T07:59:42.217Z,21.00
2017-11-06T08:00:48.334Z,21.00
2017-11-06T08:01:54.147Z,21.00
2017-11-06T08:02:59.670Z,21.00
2017-11-06T08:04:04.953Z,21.00
2017-11-06T08:05:10.186Z,21.10
2017-11-06T08:06:15.586Z,21.10
2017-11-06T08:07:20.785Z,21.10
2017-11-06T08:08:26.123Z,21.20
2017-11-06T08:09:31.479Z,21.20
2017-11-06T08:10:36.692Z,21.20
2017-11-06T08:11:42.379Z,21.30
2017-11-06T08:12:47.960Z,21.30
2017-11-06T08:13:53.359Z,21.30
2017-11-06T08:14:58.614Z,21.30
2017-11-06T08:16:04.472Z,21.30
2017-11-06T08:17:10.084Z,21.30
2017-11-06T08:18:15.430Z,21.30
2017-11-06T08:19:20.584Z,21.30
2017-11-06T08:20:26.169Z,21.40
2017-11-06T08:21:31.323Z,21.40
2017-11-06T08:22:36.313Z,21.40
2017-11-06T08:23:41.639Z,21.40
2017-11-06T08:24:46.725Z,21.40
2017-11-06T08:25:52.065Z,21.40
2017-11-06T08:26:57.741Z,21.40
2017-11-06T08:28:03.781Z,21.40
2017-11-06T08:29:09.317Z,21.40
2017-11-06T08:30:14.821Z,21.50
2017-11-06T08:31:20.425Z,21.50
2017-11-06T08:32:25.794Z,21.50
2017-11-06T08:33:30.767Z,21.50
2017-11-06T08:34:35.686Z,21.50
2017-11-06T08:35:40.592Z,21.50
2017-11-06T08:36:45.984Z,21.50
2017-11-06T08:37:51.882Z,21.50
2017-11-06T08:38:57.441Z,21.50
2017-11-06T08:40:03.293Z,21.50
2017-11-06T08:41:08.827Z,21.50
2017-11-06T08:42:14.736Z,21.60
2017-11-06T08:43:21.515Z,21.60
2017-11-06T08:44:26.846Z,21.60
2017-11-06T08:45:31.903Z,21.60
2017-11-06T08:46:37.610Z,21.60
2017-11-06T08:47:43.059Z,21.70
2017-11-06T08:48:48.316Z,21.70
2017-11-06T08:49:53.721Z,21.70
2017-11-06T08:50:58.993Z,21.70
2017-11-06T08:52:04.478Z,21.80
2017-11-06T08:53:09.619Z,21.90
2017-11-06T08:54:15.186Z,21.90
2017-11-06T08:55:20.605Z,21.90
2017-11-06T08:56:25.944Z,21.90
2017-11-06T08:57:31.343Z,22.00
2017-11-06T08:58:36.787Z,22.00
2017-11-06T08:59:43.020Z,22.00
2017-11-06T09:00:48.501Z,22.00
2017-11-06T09:01:53.898Z,22.00
2017-11-06T09:02:59.065Z,22.00
2017-11-06T09:04:04.256Z,22.00
2017-11-06T09:05:09.758Z,22.00
2017-11-06T09:06:14.917Z,22.00
2017-11-06T09:07:20.269Z,22.00
2017-11-06T09:08:25.775Z,21.90
2017-11-06T09:09:31.264Z,21.90
2017-11-06T09:10:36.685Z,21.80
2017-11-06T09:11:42.073Z,21.80
2017-11-06T09:12:47.711Z,21.70
2017-11-06T09:13:53.302Z,21.70
2017-11-06T09:14:58.792Z,21.60
2017-11-06T09:16:04.640Z,21.60
2017-11-06T09:17:10.222Z,21.50
2017-11-06T09:18:15.649Z,21.50
2017-11-06T09:19:21.452Z,21.50
2017-11-06T09:20:26.916Z,21.50
2017-11-06T09:21:32.471Z,21.50
2017-11-06T09:22:39.107Z,21.50
2017-11-06T09:23:45.394Z,21.50
2017-11-06T09:24:50.825Z,21.50
2017-11-06T09:25:56.334Z,21.50
2017-11-06T09:27:02.159Z,21.50
2017-11-06T09:28:07.330Z,21.50
2017-11-06T09:29:12.754Z,21.60
2017-11-06T09:30:19.529Z,21.50
2017-11-06T09:31:24.922Z,21.50
2017-11-06T09:32:30.951Z,21.60
2017-11-06T09:33:37.060Z,21.60
2017-11-06T09:34:42.631Z,21.60
2017-11-06T09:35:47.890Z,21.60
2017-11-06T09:36:53.189Z,21.60
2017-11-06T09:37:58.738Z,21.60
2017-11-06T09:39:04.322Z,21.60
2017-11-06T09:40:09.725Z,21.70
2017-11-06T09:41:15.171Z,21.70
2017-11-06T09:42:20.701Z,21.70
2017-11-06T09:43:26.133Z,21.50
2017-11-06T09:44:31.908Z,21.30
2017-11-06T09:45:38.939Z,21.10
2017-11-06T09:46:44.551Z,21.00
2017-11-06T09:47:50.214Z,21.00
2017-11-06T09:48:56.187Z,21.00
2017-11-06T09:50:02.904Z,21.10
2017-11-06T09:51:08.408Z,21.10
2017-11-06T09:52:14.202Z,21.20
2017-11-06T09:53:19.682Z,21.30
2017-11-06T09:54:25.042Z,21.40
2017-11-06T09:55:30.627Z,21.30
2017-11-06T09:56:36.173Z,21.40
2017-11-06T09:57:41.785Z,21.40
2017-11-06T09:58:47.547Z,21.40
2017-11-06T09:59:53.211Z,21.40
2017-11-06T10:01:00.153Z,21.40
2017-11-06T10:02:05.687Z,21.40
2017-11-06T10:03:11.437Z,21.40
2017-11-06T10:05:22.557Z,21.40
2017-11-06T10:06:27.682Z,21.50
2017-11-06T10:07:32.929Z,21.40
2017-11-06T10:08:38.684Z,21.40
2017-11-06T10:09:43.933Z,21.40
2017-11-06T10:10:49.235Z,21.40
2017-11-06T10:11:54.815Z,21.40
2017-11-06T10:13:00.114Z,21.40
2017-11-06T10:14:05.659Z,21.40
2017-11-06T10:15:10.831Z,21.40
2017-11-06T10:16:17.316Z,21.30
2017-11-06T10:17:23.308Z,21.30
2017-11-06T10:18:30.401Z,21.30
2017-11-06T10:19:35.942Z,21.30
2017-11-06T10:20:41.152Z,21.30
2017-11-06T10:21:46.087Z,21.30
2017-11-06T10:22:51.158Z,21.30
2017-11-06T10:23:56.668Z,21.30
2017-11-06T10:25:01.704Z,21.30
2017-11-06T10:26:06.950Z,21.30
2017-11-06T10:27:12.317Z,21.30
2017-11-06T10:28:17.551Z,21.30
2017-11-06T10:29:22.440Z,21.20
2017-11-06T10:30:27.554Z,21.30
2017-11-06T10:31:32.702Z,21.20
2017-11-06T10:32:38.098Z,21.20
2017-11-06T10:33:44.481Z,21.20
2017-11-06T10:34:49.888Z,21.20
2017-11-06T10:35:55.483Z,21.20
2017-11-06T10:37:01.218Z,21.30
2017-11-06T10:38:06.882Z,21.30
2017-11-06T10:39:12.409Z,21.20
2017-11-06T10:40:17.800Z,21.20
2017-11-06T10:41:23.425Z,21.20
2017-11-06T10:42:29.026Z,21.20
2017-11-06T10:43:34.734Z,21.20
2017-11-06T10:44:40.232Z,21.20
2017-11-06T10:45:45.370Z,21.20
2017-11-06T10:46:50.953Z,21.20
2017-11-06T10:47:56.238Z,21.20
2017-11-06T10:49:02.242Z,21.20
2017-11-06T10:50:08.710Z,21.20
2017-11-06T10:51:14.533Z,21.30
2017-11-06T10:52:19.662Z,21.30
2017-11-06T10:53:25.265Z,21.20
2017-11-06T10:54:30.614Z,21.20
2017-11-06T10:55:36.224Z,21.30
2017-11-06T10:56:53.954Z,21.20
2017-11-06T10:57:59.574Z,21.20
2017-11-06T10:59:05.893Z,21.20
2017-11-06T11:00:12.010Z,21.20
2017-11-06T11:01:17.607Z,21.20
2017-11-06T11:02:23.520Z,21.30
2017-11-06T11:03:28.929Z,21.20
2017-11-06T11:04:34.183Z,21.20
2017-11-06T11:05:39.538Z,21.20
2017-11-06T11:06:45.028Z,21.20
2017-11-06T11:07:50.289Z,21.20
2017-11-06T11:08:55.921Z,21.20
2017-11-06T11:10:01.480Z,21.20
2017-11-06T11:11:06.879Z,21.20
2017-11-06T11:12:12.449Z,21.20
2017-11-06T11:13:17.830Z,21.20
2017-11-06T11:14:23.078Z,21.30
2017-11-06T11:15:28.583Z,21.30
2017-11-06T11:16:33.913Z,21.30
2017-11-06T11:17:39.947Z,21.40
2017-11-06T11:18:45.394Z,21.40
2017-11-06T11:19:51.165Z,21.30
2017-11-06T11:20:56.895Z,21.20
2017-11-06T11:22:02.796Z,21.00
2017-11-06T11:23:07.832Z,20.90
2017-11-06T11:24:14.016Z,20.70
2017-11-06T11:25:18.933Z,20.70
2017-11-06T11:26:24.250Z,20.60
2017-11-06T11:27:29.901Z,20.60
2017-11-06T11:28:35.273Z,20.70
2017-11-06T11:29:40.697Z,20.70
2017-11-06T11:30:46.213Z,20.80
2017-11-06T11:31:52.502Z,20.80
2017-11-06T11:32:59.489Z,20.70
2017-11-06T11:34:05.037Z,20.70
2017-11-06T11:35:10.603Z,20.80
2017-11-06T11:36:15.923Z,20.70
2017-11-06T11:37:21.603Z,20.70
2017-11-06T11:38:26.773Z,20.60
2017-11-06T11:39:32.608Z,20.60
2017-11-06T11:40:39.100Z,20.50
2017-11-06T11:41:45.554Z,20.50
2017-11-06T11:42:53.078Z,20.50
2017-11-06T11:43:59.722Z,20.50
2017-11-06T11:45:06.626Z,20.50
2017-11-06T11:46:13.534Z,20.50
2017-11-06T11:47:22.343Z,20.50
2017-11-06T11:48:29.277Z,20.50
2017-11-06T11:49:36.487Z,20.60
2017-11-06T11:50:41.913Z,20.70
2017-11-06T11:51:47.427Z,20.80
2017-11-06T11:53:16.326Z,20.80
2017-11-06T11:54:25.698Z,20.90
2017-11-06T11:55:30.939Z,20.90
2017-11-06T11:56:37.890Z,21.00
2017-11-06T11:57:44.936Z,21.00
2017-11-06T11:58:51.039Z,21.00
2017-11-06T11:59:57.486Z,21.00
2017-11-06T12:01:05.688Z,21.00
2017-11-06T12:02:12.481Z,21.00
2017-11-06T12:03:18.675Z,21.00
2017-11-06T12:04:25.132Z,21.00
2017-11-06T12:05:31.292Z,21.00
2017-11-06T12:06:37.654Z,21.00
2017-11-06T12:07:46.376Z,21.00
2017-11-06T12:08:52.836Z,21.00
2017-11-06T12:09:59.087Z,21.00
2017-11-06T12:11:05.526Z,21.10
2017-11-06T12:12:12.205Z,21.10
2017-11-06T12:13:18.810Z,21.20
2017-11-06T12:14:25.482Z,21.20
2017-11-06T12:15:32.251Z,21.20
2017-11-06T12:16:39.149Z,21.30
2017-11-06T12:17:45.711Z,21.30
2017-11-06T12:18:52.950Z,21.30
2017-11-06T12:19:58.591Z,21.30
2017-11-06T12:21:05.575Z,21.30
2017-11-06T12:22:10.931Z,21.30
2017-11-06T12:23:18.097Z,21.40
2017-11-06T12:24:24.003Z,21.40
2017-11-06T12:25:29.325Z,21.40
2017-11-06T12:26:34.209Z,21.40
2017-11-06T12:27:39.813Z,21.40
2017-11-06T12:28:45.657Z,21.50
2017-11-06T12:29:51.801Z,21.50
2017-11-06T12:30:57.388Z,21.50
2017-11-06T12:32:03.798Z,21.40
2017-11-06T12:33:10.606Z,21.30
2017-11-06T12:34:19.778Z,21.40
2017-11-06T12:35:26.551Z,21.30
2017-11-06T12:36:32.070Z,21.30
2017-11-06T12:37:37.542Z,21.30
2017-11-06T12:38:43.097Z,21.20
2017-11-06T12:39:48.706Z,21.20
2017-11-06T12:40:53.687Z,21.20
2017-11-06T12:41:58.730Z,21.20
2017-11-06T12:43:04.427Z,21.10
2017-11-06T12:44:09.893Z,21.10
2017-11-06T12:45:15.192Z,21.10
2017-11-06T12:46:20.332Z,21.10
2017-11-06T12:47:25.705Z,21.10
2017-11-06T12:48:31.509Z,21.10
2017-11-06T12:49:38.110Z,21.10
2017-11-06T12:50:43.168Z,21.10
2017-11-06T12:51:48.773Z,21.10
2017-11-06T12:52:54.324Z,21.10
2017-11-06T12:53:59.885Z,21.20
2017-11-06T12:55:05.059Z,21.20
2017-11-06T12:56:10.521Z,21.20
2017-11-06T12:57:16.286Z,21.30
2017-11-06T12:58:21.647Z,21.30
2017-11-06T12:59:27.048Z,21.30
2017-11-06T13:00:32.588Z,21.40
2017-11-06T13:01:37.883Z,21.40
2017-11-06T13:02:43.966Z,21.40
2017-11-06T13:03:49.374Z,21.40
2017-11-06T13:04:55.156Z,21.50
2017-11-06T13:06:01.168Z,21.50
2017-11-06T13:07:07.464Z,21.50
2017-11-06T13:08:12.871Z,21.50
2017-11-06T13:09:17.849Z,21.50
2017-11-06T13:10:22.718Z,21.50
2017-11-06T13:11:27.901Z,21.50
2017-11-06T13:12:33.044Z,21.50
2017-11-06T13:13:37.935Z,21.50
2017-11-06T13:14:43.943Z,21.50
2017-11-06T13:15:49.077Z,21.40
2017-11-06T13:16:54.562Z,21.40
2017-11-06T13:17:59.824Z,21.40
2017-11-06T13:19:05.435Z,21.30
2017-11-06T13:20:11.133Z,21.30
2017-11-06T13:21:16.622Z,21.30
2017-11-06T13:22:22.559Z,21.30
2017-11-06T13:23:28.523Z,21.20
2017-11-06T13:24:34.092Z,21.20
2017-11-06T13:25:39.058Z,21.20
2017-11-06T13:26:43.920Z,21.20
2017-11-06T13:27:48.689Z,21.20
2017-11-06T13:28:53.504Z,21.20
2017-11-06T13:29:58.588Z,21.20
2017-11-06T13:31:03.493Z,21.20
2017-11-06T13:32:08.431Z,21.10
2017-11-06T13:33:13.560Z,21.10
2017-11-06T13:34:18.551Z,21.10
2017-11-06T13:35:23.630Z,21.10
2017-11-06T13:36:28.470Z,21.10
2017-11-06T13:37:33.555Z,21.10
2017-11-06T13:38:38.498Z,21.10
2017-11-06T13:39:43.604Z,21.10
2017-11-06T13:40:48.908Z,21.10
2017-11-06T13:41:54.386Z,21.10
2017-11-06T13:42:59.218Z,21.10
2017-11-06T13:44:04.289Z,21.10
2017-11-06T13:45:09.648Z,21.10
2017-11-06T13:46:14.934Z,21.10
2017-11-06T13:47:20.149Z,21.00
2017-11-06T13:48:25.355Z,21.10
2017-11-06T13:49:30.200Z,21.10
2017-11-06T13:50:35.321Z,21.10
2017-11-06T13:51:40.300Z,21.10
2017-11-06T13:52:46.199Z,21.10
2017-11-06T13:53:51.192Z,21.10
2017-11-06T13:54:56.364Z,21.00
2017-11-06T13:56:01.854Z,21.10
2017-11-06T13:57:07.112Z,21.10
2017-11-06T13:58:11.995Z,21.10
2017-11-06T13:59:17.029Z,21.00
2017-11-06T14:00:22.533Z,21.00
2017-11-06T14:01:27.392Z,21.00
2017-11-06T14:02:32.589Z,21.00
2017-11-06T14:03:37.623Z,21.10